createdAt,value
2018-02-05T00:00:45.008Z,35.73
2018-02-05T00:03:13.321Z,41.67
2018-02-05T00:05:40.849Z,41.97
2018-02-05T00:08:09.140Z,39.93
2018-02-05T00:10:37.462Z,43.23
2018-02-05T00:13:04.997Z,47.10
2018-02-05T00:15:32.507Z,47.77
2018-02-05T00:18:00.069Z,43.77
2018-02-05T00:20:27.594Z,52.13
2018-02-05T00:22:55.865Z,53.40
2018-02-05T00:25:23.408Z,51.53
2018-02-05T00:27:50.935Z,53.73
2018-02-05T00:30:18.450Z,48.07
2018-02-05T00:32:46.757Z,51.17
2018-02-05T00:35:14.257Z,50.07
2018-02-05T00:37:41.788Z,46.17
2018-02-05T00:40:09.340Z,43.23
2018-02-05T00:42:36.861Z,34.17
2018-02-05T00:45:04.387Z,32.43
2018-02-05T00:47:31.923Z,31.77
2018-02-05T00:49:59.444Z,29.00
2018-02-05T00:52:26.958Z,27.20
2018-02-05T00:54:54.506Z,28.80
2018-02-05T00:57:22.029Z,29.87
2018-02-05T00:59:49.556Z,30.10
2018-02-05T01:02:17.200Z,30.03
2018-02-05T01:04:44.721Z,32.50
2018-02-05T01:07:12.238Z,33.10
2018-02-05T01:09:39.789Z,35.33
2018-02-05T01:12:08.076Z,29.20
2018-02-05T01:14:35.584Z,30.43
2018-02-05T01:17:03.134Z,29.50
2018-02-05T01:19:30.642Z,33.20
2018-02-05T01:21:58.935Z,35.30
2018-02-05T01:24:27.232Z,33.90
2018-02-05T01:26:54.756Z,34.37
2018-02-05T01:29:23.042Z,38.83
2018-02-05T01:31:51.370Z,37.33
2018-02-05T01:34:18.886Z,38.03
2018-02-05T01:36:47.232Z,36.40
2018-02-05T01:39:14.783Z,42.17
2018-02-05T01:41:42.300Z,36.57
2018-02-05T01:44:10.599Z,42.40
2018-02-05T01:46:38.129Z,42.77
2018-02-05T01:49:05.645Z,36.43
2018-02-05T01:51:33.154Z,41.70
2018-02-05T01:54:00.691Z,38.07
2018-02-05T01:56:28.203Z,38.27
2018-02-05T01:58:55.739Z,39.03
2018-02-05T02:01:23.293Z,35.67
2018-02-05T02:03:50.813Z,37.23
2018-02-05T02:06:18.334Z,36.90
2018-02-05T02:08:45.876Z,35.07
2018-02-05T02:11:13.405Z,30.27
2018-02-05T02:13:40.935Z,33.70
2018-02-05T02:16:09.243Z,33.27
2018-02-05T02:18:36.757Z,32.77
2018-02-05T02:21:04.276Z,33.17
2018-02-05T02:23:31.803Z,32.13
2018-02-05T02:25:59.313Z,34.87
2018-02-05T02:28:26.825Z,29.63
2018-02-05T02:30:54.396Z,31.67
2018-02-05T02:33:22.676Z,29.17
2018-02-05T02:35:50.983Z,32.20
2018-02-05T02:38:18.504Z,32.53
2018-02-05T02:40:46.015Z,28.80
2018-02-05T02:43:13.567Z,29.97
2018-02-05T02:45:41.842Z,31.60
2018-02-05T02:48:10.141Z,32.57
2018-02-05T02:50:37.654Z,30.03
2018-02-05T02:53:05.168Z,32.30
2018-02-05T02:55:32.727Z,29.33
2018-02-05T02:58:00.249Z,33.73
2018-02-05T03:00:27.768Z,33.60
2018-02-05T03:02:55.308Z,34.83
2018-02-05T03:05:22.840Z,36.47
2018-02-05T03:07:50.352Z,34.27
2018-02-05T03:10:17.887Z,38.63
2018-02-05T03:12:46.161Z,39.10
2018-02-05T03:15:14.437Z,37.20
2018-02-05T03:17:41.988Z,33.23
2018-02-05T03:20:09.506Z,36.23
2018-02-05T03:22:37.232Z,39.17
2018-02-05T03:25:05.533Z,29.33
2018-02-05T03:27:33.812Z,34.10
2018-02-05T03:30:02.133Z,30.30
2018-02-05T03:32:29.645Z,30.33
2018-02-05T03:34:57.960Z,26.30
2018-02-05T03:37:26.240Z,29.27
2018-02-05T03:39:53.754Z,24.03
2018-02-05T03:42:21.264Z,29.37
2018-02-05T03:44:48.898Z,25.23
2018-02-05T03:47:17.181Z,27.80
2018-02-05T03:49:45.451Z,22.07
2018-02-05T03:52:13.779Z,25.03
2018-02-05T03:54:41.291Z,24.03
2018-02-05T03:57:08.799Z,28.53
2018-02-05T03:59:36.342Z,24.40
2018-02-05T04:02:04.616Z,24.47
2018-02-05T04:04:32.927Z,23.70
2018-02-05T04:07:06.148Z,28.13
2018-02-05T04:09:33.693Z,31.53
2018-02-05T04:12:01.197Z,28.93
2018-02-05T04:14:28.704Z,20.47
2018-02-05T04:16:56.254Z,24.93
2018-02-05T04:19:23.793Z,24.17
2018-02-05T04:21:52.076Z,22.43
2018-02-05T04:24:20.373Z,22.00
2018-02-05T04:26:47.892Z,27.03
2018-02-05T04:29:15.402Z,23.40
2018-02-05T04:31:42.942Z,25.53
2018-02-05T04:34:11.215Z,24.33
2018-02-05T04:36:38.723Z,23.03
2018-02-05T04:39:06.268Z,26.47
2018-02-05T04:41:34.543Z,24.83
2018-02-05T04:44:02.939Z,21.50
2018-02-05T04:46:30.447Z,22.33
2018-02-05T04:48:57.970Z,23.10
2018-02-05T04:51:25.596Z,24.80
2018-02-05T04:53:53.118Z,24.53
2018-02-05T04:56:20.637Z,27.10
2018-02-05T04:58:48.952Z,28.10
2018-02-05T05:01:16.462Z,28.40
2018-02-05T05:03:43.982Z,25.57
2018-02-05T05:06:11.531Z,25.20
2018-02-05T05:08:39.035Z,27.27
2018-02-05T05:11:06.548Z,29.03
2018-02-05T05:13:34.092Z,22.97
2018-02-05T05:16:02.407Z,22.83
2018-02-05T05:18:29.910Z,26.80
2018-02-05T05:20:57.539Z,25.37
2018-02-05T05:23:25.052Z,32.17
2018-02-05T05:25:52.560Z,31.40
2018-02-05T05:28:20.199Z,29.50
2018-02-05T05:30:48.480Z,26.47
2018-02-05T05:33:16.789Z,32.43
2018-02-05T05:35:44.309Z,27.77
2018-02-05T05:40:45.746Z,28.33
2018-02-05T05:43:13.277Z,30.93
2018-02-05T05:45:40.789Z,29.10
2018-02-05T05:48:08.327Z,28.87
2018-02-05T05:50:35.831Z,29.70
2018-02-05T05:53:03.357Z,27.63
2018-02-05T05:55:30.900Z,32.70
2018-02-05T05:57:58.407Z,29.87
2018-02-05T06:00:25.956Z,25.67
2018-02-05T06:02:53.480Z,30.13
2018-02-05T06:05:20.988Z,31.37
2018-02-05T06:07:48.510Z,35.63
2018-02-05T06:10:16.044Z,32.53
2018-02-05T06:12:43.561Z,36.00
2018-02-05T06:15:11.076Z,28.33
2018-02-05T06:17:39.386Z,28.97
2018-02-05T06:20:06.897Z,26.97
2018-02-05T06:22:34.399Z,25.00
2018-02-05T06:25:01.937Z,26.43
2018-02-05T06:27:29.444Z,25.50
2018-02-05T06:29:56.947Z,28.87
2018-02-05T06:32:24.493Z,28.50
2018-02-05T06:34:52.001Z,32.03
2018-02-05T06:37:20.292Z,30.00
2018-02-05T06:39:48.597Z,31.53
2018-02-05T06:42:16.107Z,35.50
2018-02-05T06:44:43.620Z,25.60
2018-02-05T06:47:11.191Z,28.77
2018-02-05T06:49:38.696Z,28.50
2018-02-05T06:52:18.137Z,33.00
2018-02-05T06:54:57.423Z,29.73
2018-02-05T06:57:25.036Z,30.33
2018-02-05T06:59:52.548Z,33.83
2018-02-05T07:02:20.065Z,34.63
2018-02-05T07:04:48.382Z,34.97
2018-02-05T07:07:15.902Z,38.93
2018-02-05T07:09:43.421Z,44.83
2018-02-05T07:12:10.975Z,44.47
2018-02-05T07:14:38.503Z,41.87
2018-02-05T07:17:06.781Z,42.33
2018-02-05T07:19:35.098Z,40.77
2018-02-05T07:22:02.601Z,43.37
2018-02-05T07:24:30.116Z,42.83
2018-02-05T07:26:57.749Z,40.83
2018-02-05T07:29:25.261Z,41.37
2018-02-05T07:31:52.761Z,43.63
2018-02-05T07:34:20.285Z,43.53
2018-02-05T07:36:47.795Z,43.77
2018-02-05T07:39:15.334Z,43.13
2018-02-05T07:41:42.885Z,41.23
2018-02-05T07:44:10.418Z,44.77
2018-02-05T07:46:37.935Z,40.73
2018-02-05T07:49:05.469Z,57.93
2018-02-05T07:51:32.989Z,49.33
2018-02-05T07:54:01.266Z,42.93
2018-02-05T07:56:29.629Z,47.17
2018-02-05T07:58:57.109Z,49.20
2018-02-05T08:01:25.399Z,47.97
2018-02-05T08:03:53.692Z,48.63
2018-02-05T08:06:21.254Z,41.80
2018-02-05T08:08:49.538Z,41.23
2018-02-05T08:11:17.076Z,36.30
2018-02-05T08:13:45.357Z,37.67
2018-02-05T08:16:13.685Z,38.30
2018-02-05T08:18:41.212Z,40.33
2018-02-05T08:21:08.732Z,32.80
2018-02-05T08:23:36.277Z,31.17
2018-02-05T08:26:03.789Z,35.43
2018-02-05T08:28:32.065Z,33.40
2018-02-05T08:30:59.620Z,36.73
2018-02-05T08:33:27.193Z,33.60
2018-02-05T08:35:54.686Z,32.07
2018-02-05T08:38:22.233Z,31.77
2018-02-05T08:40:50.513Z,36.73
2018-02-05T08:43:18.842Z,38.00
2018-02-05T08:45:46.347Z,37.70
2018-02-05T08:48:14.636Z,39.33
2018-02-05T08:50:43.058Z,39.43
2018-02-05T08:53:10.563Z,31.10
2018-02-05T08:55:38.072Z,37.90
2018-02-05T08:58:05.621Z,41.97
2018-02-05T09:00:33.143Z,32.57
2018-02-05T09:03:00.677Z,35.27
2018-02-05T09:05:28.257Z,25.80
2018-02-05T09:07:55.756Z,33.03
2018-02-05T09:10:23.273Z,28.23
2018-02-05T09:12:50.814Z,37.23
2018-02-05T09:15:18.333Z,34.17
2018-02-05T09:17:45.941Z,38.00
2018-02-05T09:20:13.498Z,35.13
2018-02-05T09:22:41.036Z,36.97
2018-02-05T09:25:09.318Z,42.47
2018-02-05T09:27:36.890Z,39.73
2018-02-05T09:30:05.173Z,41.27
2018-02-05T09:32:33.454Z,35.70
2018-02-05T09:35:00.989Z,39.17
2018-02-05T09:37:28.510Z,39.83
2018-02-05T09:39:56.024Z,35.70
2018-02-05T09:42:23.578Z,32.60
2018-02-05T09:44:51.098Z,28.90
2018-02-05T09:47:18.634Z,25.60
2018-02-05T09:49:46.938Z,24.17
2018-02-05T09:52:14.472Z,35.87
2018-02-05T09:54:42.766Z,31.93
2018-02-05T09:57:10.325Z,38.53
2018-02-05T09:59:38.611Z,42.60
2018-02-05T10:02:06.135Z,39.17
2018-02-05T10:04:33.697Z,34.70
2018-02-05T10:07:01.242Z,32.63
2018-02-05T10:09:28.778Z,50.37
2018-02-05T10:11:56.344Z,45.40
2018-02-05T10:14:23.850Z,44.80
2018-02-05T10:16:51.378Z,36.70
2018-02-05T10:19:18.937Z,22.23
2018-02-05T10:21:46.454Z,22.07
2018-02-05T10:24:14.007Z,31.30
2018-02-05T10:26:41.603Z,27.43
2018-02-05T10:29:09.108Z,28.13
2018-02-05T10:31:36.629Z,29.47
2018-02-05T10:34:04.938Z,27.60
2018-02-05T10:36:32.499Z,32.30
2018-02-05T10:39:00.014Z,32.07
2018-02-05T10:41:27.566Z,33.50
2018-02-05T10:43:55.076Z,27.53
2018-02-05T10:46:22.592Z,25.77
2018-02-05T10:48:50.146Z,29.13
2018-02-05T10:51:17.676Z,26.57
2018-02-05T10:53:45.212Z,20.17
2018-02-05T10:56:13.521Z,19.70
2018-02-05T10:58:41.055Z,19.57
2018-02-05T11:01:09.334Z,19.73
2018-02-05T11:03:37.642Z,15.10
2018-02-05T11:06:05.157Z,17.80
2018-02-05T11:08:32.696Z,17.93
2018-02-05T11:11:00.310Z,18.67
2018-02-05T11:13:27.903Z,23.70
2018-02-05T11:15:55.428Z,25.77
2018-02-05T11:18:23.739Z,28.30
2018-02-05T11:20:51.273Z,25.30
2018-02-05T11:23:19.616Z,29.27
2018-02-05T11:25:47.151Z,34.50
2018-02-05T11:28:14.693Z,39.53
2018-02-05T11:30:42.977Z,33.77
2018-02-05T11:33:11.414Z,36.20
2018-02-05T11:35:38.964Z,25.87
2018-02-05T11:38:06.496Z,23.90
2018-02-05T11:40:34.031Z,22.10
2018-02-05T11:43:01.563Z,23.40
2018-02-05T11:45:29.123Z,22.10
2018-02-05T11:47:56.661Z,21.47
2018-02-05T11:50:24.189Z,31.87
2018-02-05T11:52:51.744Z,30.30
2018-02-05T11:55:19.426Z,26.13
2018-02-05T11:57:47.713Z,37.57
2018-02-05T12:00:16.071Z,30.70
2018-02-05T12:02:43.587Z,23.47
2018-02-05T12:05:11.155Z,22.90
2018-02-05T12:07:38.716Z,24.80
2018-02-05T12:10:06.265Z,26.57
2018-02-05T12:12:33.799Z,25.10
2018-02-05T12:15:01.375Z,24.63
2018-02-05T12:17:29.734Z,25.53
2018-02-05T12:19:57.297Z,27.63
2018-02-05T12:22:24.870Z,38.07
2018-02-05T12:24:52.411Z,37.97
2018-02-05T12:27:19.929Z,28.63
2018-02-05T12:29:47.468Z,33.80
2018-02-05T12:32:15.772Z,24.93
2018-02-05T12:34:43.375Z,24.63
2018-02-05T12:37:10.963Z,27.90
2018-02-05T12:39:38.473Z,32.83
2018-02-05T12:42:06.028Z,29.00
2018-02-05T12:44:33.643Z,43.17
2018-02-05T12:47:01.198Z,46.37
2018-02-05T12:49:28.778Z,36.30
2018-02-05T12:51:56.347Z,33.40
2018-02-05T12:54:23.897Z,29.47
2018-02-05T12:56:51.433Z,28.53
2018-02-05T12:59:19.047Z,23.37
2018-02-05T13:01:52.293Z,19.17
2018-02-05T13:07:24.739Z,12.80
2018-02-05T13:09:53.058Z,21.43
2018-02-05T13:12:20.588Z,18.57
2018-02-05T13:14:48.886Z,18.90
2018-02-05T13:17:16.424Z,19.03
2018-02-05T13:19:44.750Z,24.83
2018-02-05T13:22:12.295Z,28.07
2018-02-05T13:24:39.875Z,22.37
2018-02-05T13:27:07.427Z,19.90
2018-02-05T13:29:34.955Z,19.80
2018-02-05T13:32:03.254Z,27.13
2018-02-05T13:34:30.830Z,17.90
2018-02-05T13:36:58.343Z,24.03
2018-02-05T13:39:25.883Z,24.67
2018-02-05T13:41:53.444Z,62.23
2018-02-05T13:44:21.026Z,83.93
2018-02-05T13:46:48.620Z,48.23
2018-02-05T13:49:16.916Z,41.90
2018-02-05T13:51:45.205Z,27.93
2018-02-05T13:54:12.756Z,27.40
2018-02-05T13:56:41.048Z,51.10
2018-02-05T13:59:08.574Z,31.50
2018-02-05T14:01:36.133Z,28.57
2018-02-05T14:04:03.653Z,19.30
2018-02-05T14:06:31.220Z,38.80
2018-02-05T14:08:58.829Z,54.73
2018-02-05T14:11:26.384Z,45.67
2018-02-05T14:13:53.917Z,28.70
2018-02-05T14:16:21.461Z,32.60
2018-02-05T14:18:54.606Z,35.70
2018-02-05T14:21:22.173Z,36.70
2018-02-05T14:23:49.741Z,33.63
2018-02-05T14:26:17.307Z,30.20
2018-02-05T14:28:44.878Z,35.13
2018-02-05T14:31:12.394Z,37.27
2018-02-05T14:33:39.920Z,31.70
2018-02-05T14:36:07.486Z,23.27
2018-02-05T14:38:35.024Z,21.73
2018-02-05T14:41:02.567Z,27.00
2018-02-05T14:43:30.118Z,30.47
2018-02-05T14:45:57.635Z,28.37
2018-02-05T14:48:25.916Z,24.20
2018-02-05T14:50:54.239Z,30.20
2018-02-05T14:53:21.760Z,22.13
2018-02-05T14:55:50.064Z,30.47
2018-02-05T14:58:17.632Z,28.53
2018-02-05T15:00:45.165Z,37.17
2018-02-05T15:03:13.469Z,31.20
2018-02-05T15:05:41.012Z,33.87
2018-02-05T15:08:09.310Z,34.53
2018-02-05T15:10:36.889Z,33.00
2018-02-05T15:13:04.466Z,29.97
2018-02-05T15:15:31.998Z,29.23
2018-02-05T15:18:00.370Z,30.97
2018-02-05T15:20:28.731Z,35.03
2018-02-05T15:22:56.279Z,35.47
2018-02-05T15:25:23.804Z,35.57
2018-02-05T15:27:51.463Z,28.17
2018-02-05T15:30:18.986Z,29.50
2018-02-05T15:32:46.534Z,27.33
2018-02-05T15:35:14.107Z,22.37
2018-02-05T15:37:41.630Z,22.83
2018-02-05T15:40:09.205Z,23.80
2018-02-05T15:42:36.740Z,28.70
2018-02-05T15:45:04.277Z,19.57
2018-02-05T15:47:32.624Z,23.67
2018-02-05T15:50:00.232Z,23.57
2018-02-05T15:52:28.555Z,28.23
2018-02-05T15:54:56.142Z,28.77
2018-02-05T15:57:23.757Z,27.70
2018-02-05T15:59:52.064Z,27.63
2018-02-05T16:02:19.722Z,32.13
2018-02-05T16:04:47.343Z,37.30
2018-02-05T16:07:15.665Z,35.13
2018-02-05T16:09:43.199Z,31.03
2018-02-05T16:12:11.578Z,31.90
2018-02-05T16:14:39.893Z,32.50
2018-02-05T16:17:07.456Z,35.53
2018-02-05T16:19:35.098Z,38.20
2018-02-05T16:22:03.454Z,52.93
2018-02-05T16:24:30.989Z,48.07
2018-02-05T16:26:58.603Z,39.47
2018-02-05T16:29:26.164Z,41.17
2018-02-05T16:31:54.475Z,33.70
2018-02-05T16:34:22.126Z,33.63
2018-02-05T16:36:50.468Z,40.23
2018-02-05T16:39:18.075Z,37.37
2018-02-05T16:41:45.725Z,47.93
2018-02-05T16:44:14.034Z,39.70
2018-02-05T16:46:41.604Z,42.90
2018-02-05T16:49:09.172Z,49.20
2018-02-05T16:51:36.749Z,56.30
2018-02-05T16:54:04.301Z,37.40
2018-02-05T16:56:31.961Z,48.97
2018-02-05T16:58:59.513Z,35.17
2018-02-05T17:01:27.068Z,34.77
2018-02-05T17:03:54.647Z,39.33
2018-02-05T17:06:22.215Z,37.13
2018-02-05T17:08:49.829Z,31.83
2018-02-05T17:11:17.409Z,34.43
2018-02-05T17:13:44.943Z,35.77
2018-02-05T17:16:12.467Z,37.10
2018-02-05T17:18:40.162Z,38.43
2018-02-05T17:21:07.773Z,37.40
2018-02-05T17:23:36.094Z,30.70
2018-02-05T17:26:03.648Z,33.00
2018-02-05T17:28:31.176Z,34.53
2018-02-05T17:30:59.473Z,39.70
2018-02-05T17:33:27.938Z,35.37
2018-02-05T17:35:56.321Z,37.90
2018-02-05T17:38:24.745Z,39.80
2018-02-05T17:40:52.294Z,45.87
2018-02-05T17:43:19.826Z,49.33
2018-02-05T17:45:47.385Z,56.20
2018-02-05T17:48:14.914Z,58.27
2018-02-05T17:50:42.478Z,63.53
2018-02-05T17:53:10.055Z,55.77
2018-02-05T17:55:37.617Z,54.00
2018-02-05T17:58:05.138Z,58.00
2018-02-05T18:00:33.449Z,58.73
2018-02-05T18:03:01.027Z,54.63
2018-02-05T18:05:28.586Z,75.30
2018-02-05T18:07:56.143Z,70.50
2018-02-05T18:10:23.677Z,71.43
2018-02-05T18:12:51.286Z,60.57
2018-02-05T18:15:18.869Z,53.13
2018-02-05T18:17:46.469Z,64.17
2018-02-05T18:20:14.009Z,62.77
2018-02-05T18:22:41.758Z,64.03
2018-02-05T18:25:09.304Z,67.23
2018-02-05T18:27:36.851Z,67.17
2018-02-05T18:30:05.177Z,68.63
2018-02-05T18:32:32.716Z,67.00
2018-02-05T18:35:00.258Z,71.90
2018-02-05T18:37:27.846Z,80.87
2018-02-05T18:39:55.410Z,72.70
2018-02-05T18:42:22.979Z,70.10
2018-02-05T18:44:50.584Z,68.33
2018-02-05T18:47:18.885Z,73.87
2018-02-05T18:49:46.402Z,76.60
2018-02-05T18:52:14.124Z,69.33
2018-02-05T18:54:41.736Z,72.80
2018-02-05T18:57:09.310Z,66.93
2018-02-05T18:59:37.779Z,63.63
2018-02-05T19:02:17.134Z,64.13
2018-02-05T19:04:45.498Z,67.83
2018-02-05T19:07:13.093Z,63.33
2018-02-05T19:09:41.449Z,66.43
2018-02-05T19:12:09.069Z,63.67
2018-02-05T19:14:37.362Z,66.87
2018-02-05T19:17:04.928Z,69.17
2018-02-05T19:19:32.586Z,69.50
2018-02-05T19:22:00.127Z,68.37
2018-02-05T19:24:27.661Z,71.40
2018-02-05T19:26:55.252Z,77.70
2018-02-05T19:29:22.799Z,68.63
2018-02-05T19:31:51.143Z,73.50
2018-02-05T19:34:18.701Z,74.10
2018-02-05T19:36:46.250Z,71.67
2018-02-05T19:39:13.784Z,73.57
2018-02-05T19:41:42.111Z,67.57
2018-02-05T19:44:09.706Z,73.93
2018-02-05T19:46:37.262Z,78.27
2018-02-05T19:49:04.833Z,85.70
2018-02-05T19:51:32.386Z,74.43
2018-02-05T19:53:59.912Z,70.90
2018-02-05T19:56:27.478Z,73.70
2018-02-05T19:58:55.028Z,76.63
2018-02-05T20:01:22.611Z,77.67
2018-02-05T20:03:50.212Z,86.03
2018-02-05T20:06:17.737Z,85.60
2018-02-05T20:08:45.322Z,85.47
2018-02-05T20:11:12.872Z,99.13
2018-02-05T20:13:40.471Z,95.33
2018-02-05T20:16:08.016Z,110.67
2018-02-05T20:18:36.346Z,95.13
2018-02-05T20:21:04.647Z,90.63
2018-02-05T20:23:32.178Z,87.60
2018-02-05T20:26:00.515Z,92.97
2018-02-05T20:28:28.051Z,94.67
2018-02-05T20:30:55.583Z,87.77
2018-02-05T20:33:23.913Z,93.97
2018-02-05T20:35:51.439Z,95.90
2018-02-05T20:38:18.971Z,96.50
2018-02-05T20:40:46.512Z,87.67
2018-02-05T20:43:14.069Z,105.73
2018-02-05T20:45:41.594Z,203.70
2018-02-05T20:48:09.930Z,447.10
2018-02-05T20:50:37.464Z,403.17
2018-02-05T20:53:05.030Z,355.87
2018-02-05T20:55:32.639Z,331.67
2018-02-05T20:58:00.265Z,297.73
2018-02-05T21:00:27.830Z,314.80
2018-02-05T21:02:55.497Z,309.20
2018-02-05T21:05:23.132Z,332.90
2018-02-05T21:07:51.450Z,380.47
2018-02-05T21:10:19.020Z,376.10
2018-02-05T21:12:46.573Z,355.77
2018-02-05T21:15:14.161Z,333.13
2018-02-05T21:17:41.801Z,300.50
2018-02-05T21:20:09.364Z,338.27
2018-02-05T21:22:36.932Z,366.13
2018-02-05T21:25:04.602Z,391.93
2018-02-05T21:27:32.154Z,380.53
2018-02-05T21:29:59.734Z,379.67
2018-02-05T21:32:27.340Z,366.03
2018-02-05T21:34:55.645Z,312.43
2018-02-05T21:37:23.188Z,283.53
2018-02-05T21:39:51.538Z,256.17
2018-02-05T21:42:19.091Z,355.87
2018-02-05T21:44:46.622Z,390.17
2018-02-05T21:47:14.292Z,413.47
2018-02-05T21:49:41.821Z,426.93
2018-02-05T21:52:09.378Z,444.73
2018-02-05T21:54:36.936Z,436.07
2018-02-05T21:57:04.498Z,445.23
2018-02-05T21:59:32.022Z,474.53
2018-02-05T22:01:59.573Z,445.43
2018-02-05T22:04:27.136Z,438.07
2018-02-05T22:06:54.693Z,449.23
2018-02-05T22:09:22.260Z,430.37
2018-02-05T22:11:49.875Z,436.00
2018-02-05T22:14:17.403Z,390.30
2018-02-05T22:16:44.973Z,353.20
2018-02-05T22:19:12.497Z,333.70
2018-02-05T22:21:40.020Z,336.93
2018-02-05T22:24:07.580Z,334.13
2018-02-05T22:26:35.112Z,326.43
2018-02-05T22:29:02.687Z,337.73
2018-02-05T22:31:30.261Z,380.90
2018-02-05T22:33:57.793Z,373.03
2018-02-05T22:36:25.343Z,416.63
2018-02-05T22:38:53.677Z,405.03
2018-02-05T22:41:21.209Z,429.53
2018-02-05T22:43:48.748Z,407.47
2018-02-05T22:46:16.327Z,456.73
2018-02-05T22:48:43.853Z,486.43
2018-02-05T22:51:11.373Z,475.67
2018-02-05T22:53:38.943Z,567.23
2018-02-05T22:56:06.465Z,612.30
2018-02-05T22:58:34.021Z,603.33
2018-02-05T23:01:01.573Z,598.63
2018-02-05T23:03:29.110Z,581.53
2018-02-05T23:05:56.643Z,528.10
2018-02-05T23:08:24.189Z,573.87
2018-02-05T23:10:51.711Z,614.87
2018-02-05T23:13:19.260Z,577.30
2018-02-05T23:15:46.819Z,546.93
2018-02-05T23:18:14.368Z,524.40
2018-02-05T23:20:41.957Z,566.27
2018-02-05T23:23:09.505Z,605.67
2018-02-05T23:25:37.076Z,567.60
2018-02-05T23:28:04.632Z,568.43
2018-02-05T23:30:32.201Z,552.33
2018-02-05T23:32:59.776Z,576.50
2018-02-05T23:35:27.316Z,565.27
2018-02-05T23:37:54.877Z,584.27
2018-02-05T23:40:22.420Z,576.73
2018-02-05T23:42:50.746Z,573.67
2018-02-05T23:45:18.302Z,615.67
2018-02-05T23:47:45.864Z,623.17
2018-02-05T23:50:13.380Z,613.53
2018-02-05T23:52:40.953Z,594.50
2018-02-05T23:55:09.242Z,603.40
2018-02-05T23:57:36.800Z,595.63
